Appleton, MN

9:37 AM CST on February 23, 2017 (GMT -0600)
Appleton Municipal

Weather History for KAQP - February, 2014

Change the Weather History Date:

Thursday, February 13, 2014

  Actual Average Record
Temperature  
Mean Temperature 19 °F -  
Max Temperature 35 °F 24 °F 48 °F (2017)
Min Temperature 3 °F 8 °F -7 °F (2007)
Degree Days  
Heating Degree Days 46    
Moisture  
Dew Point 10 °F    
Average Humidity 79    
Maximum Humidity 86    
Minimum Humidity 67    
Precipitation  
Precipitation 0.00 in - - ()
Sea Level Pressure  
Sea Level Pressure 29.63 in    
Wind  
Wind Speed 19 mph (WNW)    
Max Wind Speed 41 mph    
Max Gust Speed 48 mph    
Visibility 6 miles    
Events Snow    
Averages and records for this station are not official NWS values.
T = Trace of Precipitation, MM = Missing Value Source: NWS Daily Summary

Daily Weather History Graph

Daily Weather History Graph

Search for Another Location

Airport or City:

Trip Planner

Search our weather history database for the weather conditions in past years. The results will help you decide how hot, cold, wet, or windy it might be!

Date:

Astronomy

Feb. 13, 2014 Rise Set
Actual Time 7:28 AM CST 5:48 PM CST
Civil Twilight 6:57 AM CST 6:19 PM CST
Nautical Twilight 6:23 AM CST 6:53 PM CST
Astronomical Twilight 5:49 AM CST 7:28 PM CST
Moon 4:58 PM CST (2/13) 6:22 AM CST (2/13)
Length of Visible Light 11h 21m
Length of Day
10h 20m
Waxing Gibbous, 99% of the Moon is Illuminated
Feb 13
Waxing Gibbous
Feb 14
Full
Feb 22
Last Quarter
Mar 1
New
Mar 8
First Quarter

Hourly Weather History & Observations

Time (CST) Temp. Windchill Dew Point Humidity Pressure Visibility Wind Dir Wind Speed Gust Speed Precip Events Conditions
12:13 AM 19.4 °F 6.6 °F 15.8 °F 86% 29.57 in 7.0 mi SSE 12.7 mph 23.0 mph N/A   Mostly Cloudy
12:34 AM 21.2 °F 7.8 °F 15.8 °F 80% 29.54 in 7.0 mi SSE 15.0 mph 20.7 mph N/A Snow Light Snow
12:53 AM 21.2 °F 7.3 °F 17.6 °F 86% 29.51 in 7.0 mi SSE 16.1 mph - N/A   Scattered Clouds
1:13 AM 21.2 °F 6.8 °F 17.6 °F 86% 29.50 in 7.0 mi SSE 17.3 mph 25.3 mph N/A   Mostly Cloudy
1:33 AM 24.8 °F 12.4 °F 19.4 °F 80% 29.48 in 7.0 mi SSE 15.0 mph 21.9 mph N/A   Overcast
1:53 AM 24.8 °F 11.9 °F 19.4 °F 80% 29.44 in 10.0 mi SSE 16.1 mph 21.9 mph N/A   Scattered Clouds
2:13 AM 24.8 °F 14.0 °F 19.4 °F 80% 29.45 in 10.0 mi South 11.5 mph 18.4 mph N/A   Scattered Clouds
2:33 AM 24.8 °F 14.6 °F 19.4 °F 80% 29.43 in 10.0 mi SSE 10.4 mph - N/A   Mostly Cloudy
2:53 AM 26.6 °F 15.7 °F 21.2 °F 80% 29.41 in 10.0 mi South 12.7 mph - N/A   Scattered Clouds
3:13 AM 26.6 °F 14.7 °F 21.2 °F 80% 29.40 in 10.0 mi South 15.0 mph - N/A   Scattered Clouds
3:34 AM 26.6 °F 17.5 °F 21.2 °F 80% 29.39 in 10.0 mi South 9.2 mph - N/A   Scattered Clouds
3:53 AM 26.6 °F 19.1 °F 21.2 °F 80% 29.39 in 10.0 mi South 6.9 mph - N/A   Clear
4:13 AM 26.6 °F 18.2 °F 21.2 °F 80% 29.39 in 10.0 mi SW 8.1 mph - N/A   Clear
4:33 AM 28.4 °F 18.5 °F 21.2 °F 74% 29.39 in 10.0 mi WSW 11.5 mph - N/A   Clear
4:53 AM 30.2 °F 19.8 °F 24.8 °F 80% 29.39 in 10.0 mi WSW 13.8 mph - N/A   Scattered Clouds
5:13 AM 30.2 °F 20.2 °F 24.8 °F 80% 29.39 in 10.0 mi WSW 12.7 mph - N/A   Mostly Cloudy
5:33 AM 30.2 °F 19.3 °F 24.8 °F 80% 29.39 in 10.0 mi WSW 15.0 mph - N/A   Scattered Clouds
5:53 AM 33.8 °F 21.6 °F 26.6 °F 75% 29.40 in 10.0 mi West 23.0 mph 31.1 mph N/A   Scattered Clouds
6:13 AM 35.6 °F 22.5 °F 26.6 °F 70% 29.41 in 10.0 mi WNW 29.9 mph 38.0 mph N/A   Mostly Cloudy
6:33 AM 32.0 °F 18.1 °F 24.8 °F 75% 29.44 in 4.0 mi WNW 27.6 mph 42.6 mph N/A   Haze
6:53 AM 28.4 °F 13.3 °F 23.0 °F 80% 29.46 in 5.0 mi NW 27.6 mph 41.4 mph N/A   Haze
7:13 AM 24.8 °F 7.1 °F 17.6 °F 74% 29.50 in 4.0 mi NW 33.4 mph 38.0 mph N/A   Haze
7:33 AM 19.4 °F -0.6 °F 12.2 °F 74% 29.53 in 2.0 mi NW 34.5 mph 42.6 mph N/A   Haze
7:53 AM 17.6 °F -2.5 °F 12.2 °F 79% 29.55 in 2.0 mi NW 32.2 mph 39.1 mph N/A   Haze
8:13 AM 15.8 °F -6.1 °F 10.4 °F 79% 29.57 in 0.8 mi NW 36.8 mph 43.7 mph N/A Snow Light Snow
8:34 AM 14.0 °F -8.8 °F 10.4 °F 86% 29.59 in 0.5 mi NW 38.0 mph 44.9 mph N/A Snow Light Snow
8:54 AM 14.0 °F -8.8 °F 8.6 °F 79% 29.61 in 1.0 mi NW 38.0 mph 44.9 mph N/A Snow Light Snow
9:14 AM 14.0 °F -9.6 °F 8.6 °F 79% 29.61 in 0.5 mi NW 41.4 mph 48.3 mph N/A Snow Light Snow
9:33 AM 12.2 °F -9.9 °F 8.6 °F 85% 29.62 in 0.8 mi NW 32.2 mph 44.9 mph N/A Snow Light Snow
9:53 AM 12.2 °F -10.2 °F 6.8 °F 79% 29.63 in 0.8 mi NW 33.4 mph 41.4 mph N/A   Haze
10:13 AM 12.2 °F -10.2 °F 6.8 °F 79% 29.63 in 1.5 mi NW 33.4 mph 38.0 mph N/A   Haze
10:33 AM 12.2 °F -10.8 °F 6.8 °F 79% 29.65 in 1.8 mi NW 35.7 mph 41.4 mph N/A   Haze
10:53 AM 12.2 °F -7.5 °F 6.8 °F 79% 29.66 in 3.0 mi NW 24.2 mph 34.5 mph N/A   Haze
11:13 AM 12.2 °F -8.6 °F 6.8 °F 79% 29.67 in 2.0 mi NW 27.6 mph 35.7 mph N/A   Haze
11:33 AM 12.2 °F -9.6 °F 5.0 °F 73% 29.69 in 2.0 mi NW 31.1 mph 34.5 mph N/A   Haze
11:53 AM 10.4 °F -11.0 °F 5.0 °F 79% 29.71 in 2.0 mi NW 27.6 mph 35.7 mph N/A   Haze
12:13 PM 12.2 °F -9.3 °F 5.0 °F 73% 29.71 in 2.5 mi NW 29.9 mph 35.7 mph N/A   Haze
12:33 PM 10.4 °F -11.0 °F 5.0 °F 79% 29.71 in 1.8 mi NW 27.6 mph 32.2 mph N/A   Haze
12:53 PM 12.2 °F -8.2 °F 6.8 °F 79% 29.72 in 2.5 mi NW 26.5 mph 34.5 mph N/A   Haze
1:33 PM 12.2 °F -7.5 °F 5.0 °F 73% 29.72 in 4.0 mi NW 24.2 mph 32.2 mph N/A   Haze
1:53 PM 12.2 °F -8.2 °F 5.0 °F 73% 29.72 in 1.8 mi NW 26.5 mph 32.2 mph N/A   Haze
2:13 PM 12.2 °F -7.1 °F 5.0 °F 73% 29.74 in 3.0 mi NW 23.0 mph 32.2 mph N/A   Haze
2:33 PM 10.4 °F -10.3 °F 5.0 °F 79% 29.74 in 1.5 mi NW 25.3 mph 31.1 mph N/A   Haze
2:53 PM 10.4 °F -7.7 °F 5.0 °F 79% 29.74 in 4.0 mi NW 18.4 mph 24.2 mph N/A   Haze
3:13 PM 12.2 °F -5.8 °F 3.2 °F 67% 29.75 in 5.0 mi NNW 19.6 mph - N/A   Haze
3:33 PM 10.4 °F -7.2 °F 3.2 °F 73% 29.76 in 4.0 mi NW 17.3 mph 23.0 mph N/A   Haze
3:53 PM 10.4 °F -8.6 °F 3.2 °F 73% 29.76 in 5.0 mi NW 20.7 mph - N/A   Haze
4:13 PM 10.4 °F -8.2 °F 3.2 °F 73% 29.77 in 5.0 mi NW 19.6 mph - N/A   Haze
4:33 PM 10.4 °F -6.0 °F 3.2 °F 73% 29.77 in 5.0 mi NNW 15.0 mph - N/A   Haze
7:18 PM 3.2 °F -12.2 °F -0.4 °F 85% 29.80 in 10.0 mi NNW 10.4 mph - N/A   Clear
7:19 PM 3.2 °F -12.2 °F -0.4 °F 85% 29.80 in 10.0 mi NNW 10.4 mph - N/A   Clear
7:33 PM 3.2 °F -12.2 °F -0.4 °F 85% 29.79 in 10.0 mi NNW 10.4 mph - N/A   Clear
7:53 PM 5.0 °F -10.0 °F -0.4 °F 78% 29.79 in 10.0 mi NNW 10.4 mph - N/A   Clear
8:13 PM 5.0 °F -10.0 °F -0.4 °F 78% 29.81 in 10.0 mi NW 10.4 mph - N/A   Clear
8:33 PM 3.2 °F -13.9 °F -0.4 °F 85% 29.82 in 10.0 mi NW 12.7 mph - N/A   Clear
8:54 PM 3.2 °F -13.9 °F -0.4 °F 85% 29.81 in 10.0 mi NNW 12.7 mph - N/A   Clear
9:13 PM 3.2 °F -12.2 °F -0.4 °F 85% 29.82 in 10.0 mi NW 10.4 mph - N/A   Clear
9:34 PM 3.2 °F -14.6 °F -0.4 °F 85% 29.81 in 10.0 mi NNW 13.8 mph - N/A   Scattered Clouds
9:53 PM 3.2 °F -13.1 °F -2.2 °F 78% 29.81 in 10.0 mi NNW 11.5 mph - N/A   Clear
10:13 PM 3.2 °F -13.1 °F -2.2 °F 78% 29.83 in 10.0 mi NW 11.5 mph - N/A   Scattered Clouds
10:33 PM 3.2 °F -13.9 °F -2.2 °F 78% 29.81 in 10.0 mi NNW 12.7 mph - N/A   Scattered Clouds
10:53 PM 3.2 °F -13.1 °F -2.2 °F 78% 29.81 in 10.0 mi NW 11.5 mph - N/A   Clear
11:14 PM 3.2 °F -12.2 °F -2.2 °F 78% 29.83 in 10.0 mi NW 10.4 mph - N/A   Clear
11:33 PM 3.2 °F -11.3 °F -2.2 °F 78% 29.83 in 10.0 mi NNW 9.2 mph - N/A   Scattered Clouds
11:53 PM 3.2 °F -14.6 °F -2.2 °F 78% 29.81 in 10.0 mi North 13.8 mph - N/A   Scattered Clouds